Terminal Aerodrome Forecast
Issued by NWS Goodland, KS

Home | Current Version | Previous Version | Graphics & Text | Print | Product List | Glossary On
Versions: 1 2 3 4 5 6 7 8 9 10 11 12 13 14 15 16 17
000
FTUS43 KGLD 212320
TAFGLD
TAF
KGLD 212320Z 2200/2224 05007KT P6SM BKN120
     FM220400 34010KT P6SM BKN120
     FM221400 33012G20KT P6SM SCT150
     FM222200 31010KT P6SM FEW150=

USA.gov is the U.S. government's official web portal to all federal, state and local government web resources and services.